Latest Weather Observations for Mount Isa

IDQ60801

Issued at 9:02 am EST Sunday 26 April 2015 (issued every 30 minutes, with the page automatically refreshed every 10 minutes)

About weather observations | Map of weather stations | Latest weather observations for QLD | Other Formats
Station Details ID: 029127 Name: MOUNT ISA AERO Lat: -20.68 Lon: 139.49 Height: 340.3 m
Data from the previous 72 hours. | See also: Recent months at Mount Isa
Date/Time
EST
Temp
°C
App
Temp
°C
Dew
Point
Rel
Hum
%
Delta-T
°C
Wind Press
QNH
hPa
Press
MSL
hPa
Rain
since 9 am
mm
Dir
 
Spd
km/h
Gust
km/h
Spd
kts
Gust
kts
26/08:30am 15.8 9.5 1.5 38 6.4 S 24 32 13 17 1020.2 - 0.0
26/08:00am 14.9 8.9 1.3 39 6.0 S 22 30 12 16 1019.9 - 0.0
26/07:30am 13.7 9.4 1.0 42 5.5 S 13 19 7 10 1019.6 - 0.0
26/07:00am 13.4 8.3 0.6 41 5.5 S 17 22 9 12 1019.3 - 0.0
26/06:30am 13.6 7.9 -0.4 38 5.9 S 19 28 10 15 1019.1 - 0.0
26/05:30am 13.9 7.6 -1.0 36 6.2 S 22 28 12 15 1019.0 - 0.0
26/05:00am 14.0 8.2 -1.2 35 6.3 S 19 22 10 12 1018.9 - 0.0
26/04:30am 14.3 8.6 -1.0 35 6.4 S 19 24 10 13 1019.2 - 0.0
26/04:00am 14.7 9.3 -1.1 33 6.6 S 17 20 9 11 1019.1 - 0.0
26/03:30am 14.9 10.0 -0.7 34 6.6 S 15 19 8 10 1018.9 - 0.0
26/03:00am 15.3 9.6 -0.4 34 6.7 S 19 26 10 14 1018.9 1017.2 0.0
26/02:30am 15.5 10.3 0.0 34 6.7 S 17 20 9 11 1019.0 - 0.0
26/02:00am 15.9 11.5 0.3 34 6.8 S 13 17 7 9 1019.0 - 0.0
26/01:30am 15.7 12.2 1.3 37 6.4 S 9 11 5 6 1019.1 - 0.0
26/01:00am 16.5 12.6 1.3 36 6.8 S 11 13 6 7 1019.3 - 0.0
26/12:30am 16.8 12.6 1.8 36 6.8 SSE 13 19 7 10 1019.5 - 0.0
26/12:00am 17.6 12.7 1.8 34 7.2 SSE 17 24 9 13 1019.5 1017.8 0.0
 
Date/Time
EST
Temp
°C
App
Temp
°C
Dew
Point
Rel
Hum
%
Delta-T
°C
Wind Press
QNH
hPa
Press
MSL
hPa
Rain
since 9 am
mm
Dir
 
Spd
km/h
Gust
km/h
Spd
kts
Gust
kts
25/11:30pm 18.7 13.1 1.1 30 8.0 S 20 28 11 15 1019.4 - 0.0
25/11:00pm 19.0 14.0 1.6 31 8.0 S 17 20 9 11 1019.3 - 0.0
25/10:30pm 19.5 14.1 1.5 30 8.3 S 19 24 10 13 1019.1 - 0.0
25/10:00pm 19.5 14.5 1.5 30 8.3 S 17 19 9 10 1019.2 - 0.0
25/09:30pm 20.2 14.8 1.0 27 8.8 S 19 26 10 14 1019.1 - 0.0
25/09:00pm 20.8 15.3 0.4 25 9.3 S 19 26 10 14 1018.9 1017.2 0.0
25/08:30pm 21.5 15.7 -0.1 23 9.8 S 20 30 11 16 1018.6 - 0.0
25/08:00pm 22.0 15.8 -0.6 22 10.2 S 22 30 12 16 1018.0 - 0.0
25/07:30pm 22.4 16.5 -0.9 21 10.5 S 20 30 11 16 1017.5 - 0.0
25/07:00pm 22.9 17.0 -1.0 20 10.8 SSE 20 32 11 17 1016.9 - 0.0
25/06:30pm 23.6 17.7 -2.0 18 11.4 SSE 19 28 10 15 1016.5 - 0.0
25/06:00pm 24.3 17.5 -1.6 18 11.7 SSE 24 33 13 18 1016.1 1014.3 0.0
25/05:30pm 25.0 17.5 -1.7 17 12.1 S 28 35 15 19 1015.9 - 0.0
25/05:00pm 25.7 17.5 -0.9 17 12.3 S 32 41 17 22 1015.5 - 0.0
25/04:30pm 25.7 18.0 -0.4 18 12.2 S 30 43 16 23 1015.2 - 0.0
25/04:00pm 26.2 18.1 -0.1 18 12.4 S 32 41 17 22 1015.1 - 0.0
25/03:30pm 26.5 19.1 -0.7 17 12.7 SSE 28 37 15 20 1014.9 - 0.0
25/03:00pm 27.0 19.0 0.5 18 12.7 SSE 32 43 17 23 1014.9 1013.1 0.0
25/02:30pm 26.6 18.7 0.8 18 12.4 S 32 44 17 24 1015.0 - 0.0
25/02:00pm 25.7 17.6 1.1 20 11.8 S 33 43 18 23 1015.3 - 0.0
25/01:30pm 25.9 18.0 0.8 19 12.0 S 32 44 17 24 1015.7 - 0.0
25/01:00pm 25.7 17.2 0.7 19 11.9 S 35 46 19 25 1016.0 - 0.0
25/12:40pm 25.4 16.9 0.8 20 11.7 SSE 35 41 19 22 1016.1 - 0.0
25/12:30pm 25.2 16.2 0.4 19 11.7 S 37 48 20 26 1016.3 - 0.0
25/12:16pm 25.4 17.7 -0.3 18 12.0 SSE 30 50 16 27 1016.6 - 0.0
25/12:00pm 25.1 16.4 -0.2 19 11.8 S 35 46 19 25 1016.8 1015.1 0.0
25/11:30am 24.9 16.4 -1.5 17 12.0 S 33 43 18 23 1017.2 - 0.0
25/11:00am 24.4 16.4 -2.3 17 11.9 S 30 41 16 22 1017.5 - 0.0
25/10:30am 23.5 15.1 -2.2 18 11.4 S 32 41 17 22 1017.7 - 0.0
25/10:01am 23.8 15.2 -2.4 17 11.6 S 33 52 18 28 1017.5 - 0.0
25/10:00am 23.6 15.2 -2.4 17 11.5 S 32 48 17 26 1017.5 - 0.0
25/09:30am 22.8 15.2 -2.1 19 11.0 SSE 28 37 15 20 1017.4 - 0.0
25/09:00am 21.8 14.9 -2.7 19 10.6 S 24 33 13 18 1017.0 1015.3 0.0
25/08:30am 20.8 14.6 -3.2 19 10.2 S 20 26 11 14 1016.6 - 0.0
25/08:00am 19.8 13.6 -3.3 21 9.7 S 20 30 11 16 1016.4 - 0.0
25/07:30am 18.7 12.5 -3.1 22 9.1 S 20 28 11 15 1015.9 - 0.0
25/07:00am 17.8 11.6 -2.9 24 8.6 S 20 26 11 14 1015.5 - 0.0
25/06:30am 18.1 12.9 -2.7 24 8.7 S 15 17 8 9 1015.3 - 0.0
25/06:00am 18.7 13.0 -3.5 22 9.2 S 17 22 9 12 1015.0 1013.2 0.0
25/05:30am 18.5 13.4 -1.8 25 8.7 S 15 19 8 10 1014.8 - 0.0
25/05:00am 19.0 14.7 -2.0 24 9.0 SSE 11 15 6 8 1014.7 - 0.0
25/04:30am 19.4 14.7 -2.0 23 9.2 SSE 13 17 7 9 1014.6 - 0.0
25/04:00am 19.6 14.4 -2.4 22 9.4 S 15 19 8 10 1014.6 - 0.0
25/03:30am 19.4 15.1 -1.6 24 9.1 S 11 13 6 7 1014.7 - 0.0
25/03:00am 19.7 14.9 -2.2 22 9.4 S 13 15 7 8 1014.6 1012.8 0.0
25/02:30am 20.0 14.8 -2.4 22 9.6 S 15 15 8 8 1014.6 - 0.0
25/02:00am 20.3 15.1 -2.6 21 9.8 S 15 19 8 10 1014.7 - 0.0
25/01:30am 20.3 15.1 -3.0 20 9.9 S 15 19 8 10 1014.7 - 0.0
25/01:00am 20.9 15.6 -3.4 19 10.3 S 15 19 8 10 1014.7 - 0.0
25/12:30am 20.8 15.5 -3.2 19 10.2 S 15 17 8 9 1014.8 - 0.0
25/12:00am 21.2 16.3 -3.6 18 10.5 S 13 15 7 8 1014.9 1013.1 0.0
 
Date/Time
EST
Temp
°C
App
Temp
°C
Dew
Point
Rel
Hum
%
Delta-T
°C
Wind Press
QNH
hPa
Press
MSL
hPa
Rain
since 9 am
mm
Dir
 
Spd
km/h
Gust
km/h
Spd
kts
Gust
kts
24/11:30pm 21.3 16.9 -2.5 20 10.3 S 11 13 6 7 1014.9 - 0.0
24/11:00pm 22.4 18.7 -3.0 18 11.0 SSE 7 9 4 5 1014.9 - 0.0
24/10:30pm 22.3 18.3 -2.4 19 10.8 S 9 9 5 5 1014.6 - 0.0
24/10:00pm 22.4 18.0 -2.6 18 10.9 S 11 13 6 7 1014.6 - 0.0
24/09:30pm 23.6 20.0 -2.4 17 11.5 S 7 9 4 5 1014.6 - 0.0
24/09:00pm 24.3 19.3 -3.9 15 12.2 S 13 15 7 8 1014.4 1012.6 0.0
24/08:30pm 24.5 20.1 -2.4 16 12.0 S 11 13 6 7 1013.9 - 0.0
24/08:00pm 25.1 20.2 -3.7 14 12.6 S 13 15 7 8 1013.5 - 0.0
24/07:30pm 25.7 20.4 -3.5 14 12.9 SSW 15 19 8 10 1013.2 - 0.0
24/07:00pm 26.3 20.9 -4.4 13 13.4 SSW 15 19 8 10 1012.8 - 0.0
24/06:30pm 26.8 21.5 -4.0 13 13.6 SSW 15 26 8 14 1012.4 - 0.0
24/06:00pm 27.9 21.7 -4.4 12 14.3 SSW 19 20 10 11 1012.1 1010.3 0.0
24/05:30pm 28.7 22.5 -5.2 10 14.9 SSW 19 24 10 13 1011.8 - 0.0
24/05:00pm 29.3 22.9 -4.5 11 15.1 SSW 20 30 11 16 1011.7 - 0.0
24/04:30pm 29.7 23.9 -4.9 10 15.4 S 17 24 9 13 1011.4 - 0.0
24/04:00pm 29.6 24.4 -3.0 12 15.0 S 15 24 8 13 1011.5 - 0.0
24/03:30pm 29.2 24.4 -2.2 13 14.6 SSE 13 20 7 11 1011.6 - 0.0
24/03:00pm 28.9 23.7 -3.0 12 14.6 S 15 24 8 13 1011.7 1009.9 0.0
24/02:30pm 28.3 23.9 -2.8 13 14.2 S 11 24 6 13 1011.9 - 0.0
24/02:00pm 29.3 23.7 -2.9 12 14.8 SSW 17 20 9 11 1012.2 - 0.0
24/01:30pm 28.1 22.2 -2.4 13 14.0 S 19 30 10 16 1012.6 - 0.0
24/01:00pm 28.1 23.3 -0.1 16 13.5 S 15 26 8 14 1012.9 - 0.0
24/12:30pm 26.9 21.0 -2.3 14 13.3 S 19 37 10 20 1013.4 - 0.0
24/12:00pm 26.9 21.0 -1.0 16 13.0 SSE 20 30 11 16 1014.0 1012.3 0.0
24/11:30am 26.1 21.5 -0.8 17 12.5 SE 13 22 7 12 1014.7 - 0.0
24/11:00am 25.7 20.7 -0.9 17 12.3 SSE 15 24 8 13 1015.3 - 0.0
24/10:30am 24.9 19.5 -1.1 18 11.9 S 17 26 9 14 1015.6 - 0.0
24/10:00am 24.0 19.1 -0.6 19 11.3 SSE 15 24 8 13 1015.7 - 0.0
24/09:30am 23.3 17.6 -0.6 20 10.9 S 19 26 10 14 1015.6 - 0.0
24/09:00am 22.2 16.3 -0.9 21 10.4 SSE 20 28 11 15 1015.3 1013.5 0.0
24/08:30am 21.1 15.2 -0.9 23 9.8 SSE 20 26 11 14 1015.3 - 0.0
24/08:00am 19.8 15.5 0.7 28 8.7 SSE 13 19 7 10 1015.1 - 0.0
24/07:30am 18.5 14.1 0.1 29 8.2 SSE 13 17 7 9 1014.9 - 0.0
24/07:00am 17.9 13.7 -0.7 28 8.1 S 11 13 6 7 1014.6 - 0.0
24/06:30am 17.3 15.3 -0.3 30 7.7 CALM 0 0 0 0 1014.0 - 0.0
24/06:00am 16.7 14.0 0.0 32 7.3 SSE 4 9 2 5 1013.5 1011.7 0.0
24/05:30am 15.9 12.3 0.7 35 6.7 S 9 11 5 6 1013.3 - 0.0
24/05:00am 15.2 11.2 0.2 36 6.5 S 11 11 6 6 1013.2 - 0.0
24/04:30am 12.7 9.0 2.6 50 4.5 S 11 13 6 7 1013.1 - 0.0
24/04:00am 12.9 9.6 2.3 48 4.7 SSE 9 11 5 6 1013.3 - 0.0
24/03:30am 13.3 10.3 1.7 45 5.1 SSE 7 11 4 6 1013.4 - 0.0
24/03:00am 14.3 11.0 2.6 45 5.3 SSE 9 11 5 6 1013.3 1011.5 0.0
24/02:30am 15.8 12.2 3.1 42 5.9 S 11 13 6 7 1013.3 - 0.0
24/02:00am 18.3 14.2 0.1 29 8.1 SSE 11 13 6 7 1013.3 - 0.0
24/01:30am 19.4 15.5 -1.2 25 9.0 SSE 9 13 5 7 1013.4 - 0.0
24/01:00am 19.5 14.0 -1.8 23 9.2 S 17 17 9 9 1013.6 - 0.0
24/12:30am 19.7 14.2 -1.8 23 9.3 S 17 17 9 9 1013.6 - 0.0
24/12:00am 20.2 15.5 -1.5 23 9.5 S 13 17 7 9 1013.7 1012.0 0.0
 
Date/Time
EST
Temp
°C
App
Temp
°C
Dew
Point
Rel
Hum
%
Delta-T
°C
Wind Press
QNH
hPa
Press
MSL
hPa
Rain
since 9 am
mm
Dir
 
Spd
km/h
Gust
km/h
Spd
kts
Gust
kts
23/11:30pm 19.9 15.4 -0.6 25 9.1 S 13 15 7 8 1013.6 - 0.0
23/11:00pm 20.9 15.8 -1.7 22 9.9 S 15 17 8 9 1013.9 - 0.0
23/10:30pm 21.5 16.9 -1.2 22 10.1 S 13 15 7 8 1014.1 - 0.0
23/10:00pm 21.5 16.9 -0.8 22 10.0 S 13 15 7 8 1014.3 - 0.0
23/09:30pm 22.0 17.7 -1.7 20 10.5 S 11 13 6 7 1014.3 - 0.0
23/09:00pm 18.9 15.5 2.1 32 7.8 SSE 9 13 5 7 1014.0 1012.3 0.0
23/08:30pm 21.3 17.2 -0.4 23 9.8 S 11 11 6 6 1013.9 - 0.0
23/08:00pm 20.7 16.9 2.0 29 8.8 S 11 11 6 6 1013.7 - 0.0
23/07:30pm 22.2 18.6 2.7 27 9.4 S 11 13 6 7 1013.5 - 0.0
23/07:00pm 24.5 19.5 -1.5 18 11.8 S 15 20 8 11 1013.4 - 0.0
23/06:30pm 25.5 20.1 -1.7 16 12.4 S 17 19 9 10 1013.3 - 0.0
23/06:00pm 26.7 20.7 -3.3 13 13.4 S 19 26 10 14 1012.7 1010.9 0.0
23/05:30pm 27.2 21.6 -2.9 13 13.6 S 17 22 9 12 1012.3 - 0.0
23/05:00pm 27.8 22.6 -2.7 13 13.9 S 15 20 8 11 1012.0 - 0.0
23/04:30pm 28.1 22.1 -3.3 12 14.2 S 19 28 10 15 1012.1 - 0.0
23/04:00pm 28.1 22.8 -3.3 12 14.2 S 15 24 8 13 1012.0 - 0.0
23/03:30pm 27.8 22.8 -4.2 12 14.2 SSW 13 17 7 9 1012.2 - 0.0
23/03:00pm 28.2 23.3 -3.6 12 14.3 S 13 19 7 10 1012.3 1010.5 0.0
23/02:30pm 27.6 23.0 -3.8 12 14.0 S 11 22 6 12 1012.7 - 0.0
23/02:00pm 26.6 20.6 -1.2 16 12.9 S 20 28 11 15 1013.0 - 0.0
23/01:30pm 26.9 23.1 -0.5 16 12.9 E 9 20 5 11 1013.5 - 0.0
23/01:00pm 26.7 21.8 -0.6 16 12.8 SE 15 22 8 12 1013.9 - 0.0
23/12:30pm 25.6 21.1 -0.3 18 12.1 SE 13 20 7 11 1014.6 - 0.0
23/12:00pm 24.4 20.4 0.3 20 11.3 SE 11 19 6 10 1015.0 1013.2 0.0
23/11:30am 24.8 20.0 -0.1 19 11.6 SE 15 26 8 14 1015.5 - 0.0
23/11:00am 24.7 19.5 0.1 20 11.5 SSE 17 26 9 14 1015.8 - 0.0
23/10:30am 23.8 18.3 0.5 21 10.9 ESE 19 30 10 16 1016.2 - 0.0
23/10:00am 22.2 17.1 0.6 24 10.0 ESE 17 26 9 14 1016.3 - 0.0
23/09:30am 21.9 16.4 0.7 24 9.8 ESE 19 26 10 14 1016.6 - 0.0

Other Formats:

Comma delimited format used in spreadsheet applications
http://www.bom.gov.au/fwo/IDQ60801/IDQ60801.94332.axf

JavaScript Object Notation format (JSON) in row-major order
http://www.bom.gov.au/fwo/IDQ60801/IDQ60801.94332.json